Time;durP1;ratioP1;P1;durP2;ratioP2;P2;SDS_P1;SDS_P2;PMS_P1;PMS_P2;Temp;Humidity;BMP_temperature;BMP_pressure;BME280_temperature;BME280_humidity;BME280_pressure;Samples;Min_cycle;Max_cycle;Signal;HPM_P1;HPM_P2
2021/12/01 00:00:37;;;;;;;30.67;17.67;;;9.50;99.90;;;;;;4998349;28;20033;-83
2021/12/01 00:03:03;;;;;;;32.95;17.45;;;9.50;99.90;;;;;;4983813;28;20097;-83
2021/12/01 00:05:30;;;;;;;29.17;17.10;;;9.50;99.90;;;;;;4997958;28;20121;-83
2021/12/01 00:07:57;;;;;;;28.90;16.27;;;9.50;99.90;;;;;;4994530;28;20531;-83
2021/12/01 00:10:26;;;;;;;30.00;17.08;;;9.50;99.90;;;;;;4983606;28;20116;-84
2021/12/01 00:12:51;;;;;;;29.55;16.55;;;9.50;99.90;;;;;;4978531;28;20062;-83
2021/12/01 00:15:19;;;;;;;28.15;16.33;;;9.50;99.90;;;;;;4991798;28;20068;-83
2021/12/01 00:17:44;;;;;;;31.45;17.83;;;9.50;99.90;;;;;;4997796;28;20516;-85
2021/12/01 00:20:13;;;;;;;29.00;17.63;;;9.50;99.90;;;;;;5003323;28;20073;-84
2021/12/01 00:22:39;;;;;;;34.10;18.70;;;9.50;99.90;;;;;;4984891;28;20034;-85
2021/12/01 00:25:07;;;;;;;31.05;17.00;;;9.50;99.90;;;;;;4982021;28;20099;-84
2021/12/01 00:27:33;;;;;;;31.30;18.70;;;9.50;99.90;;;;;;4986085;28;20396;-83
2021/12/01 00:29:59;;;;;;;31.77;19.15;;;9.60;99.90;;;;;;4990564;28;20030;-84
2021/12/01 00:32:24;;;;;;;36.53;19.60;;;9.60;99.90;;;;;;4975030;28;20561;-84
2021/12/01 00:34:50;;;;;;;25.55;16.75;;;9.50;99.90;;;;;;4994957;28;20049;-84
2021/12/01 00:37:17;;;;;;;30.77;18.75;;;9.60;99.90;;;;;;4994245;28;20081;-84
2021/12/01 00:39:43;;;;;;;30.20;19.88;;;9.60;99.90;;;;;;4984076;28;20117;-84
2021/12/01 00:42:08;;;;;;;31.00;18.98;;;9.60;99.90;;;;;;4993002;28;20048;-84
2021/12/01 00:44:35;;;;;;;29.42;17.83;;;9.60;99.90;;;;;;4976182;28;20492;-84
2021/12/01 00:49:34;;;;;;;38.30;19.00;;;9.60;99.90;;;;;;4989426;28;20114;-84
2021/12/01 00:52:00;;;;;;;29.33;17.00;;;9.60;99.90;;;;;;4987724;28;20042;-84
2021/12/01 00:54:26;;;;;;;28.98;17.52;;;9.60;99.90;;;;;;4987584;28;20126;-84
2021/12/01 00:56:52;;;;;;;30.10;16.05;;;9.60;99.90;;;;;;4992489;28;20121;-84
2021/12/01 00:59:18;;;;;;;27.13;16.60;;;9.70;99.90;;;;;;4976424;28;20034;-84
2021/12/01 01:01:46;;;;;;;24.10;15.88;;;9.70;99.90;;;;;;4983474;28;20045;-84
2021/12/01 01:04:12;;;;;;;30.27;16.02;;;9.70;99.90;;;;;;4984582;28;20070;-84
2021/12/01 01:06:38;;;;;;;29.23;15.75;;;9.70;99.90;;;;;;4989191;28;20519;-84
2021/12/01 01:09:05;;;;;;;28.60;15.40;;;9.70;99.90;;;;;;4987810;28;20068;-84
2021/12/01 01:17:06;;;;;;;31.33;15.55;;;9.60;99.90;;;;;;4992428;28;20065;-84
2021/12/01 01:19:33;;;;;;;28.17;14.65;;;9.70;99.90;;;;;;4987994;28;20038;-84
2021/12/01 01:22:00;;;;;;;23.45;13.80;;;9.60;99.90;;;;;;4992064;28;20084;-84
2021/12/01 01:24:27;;;;;;;28.00;12.55;;;9.70;99.90;;;;;;4979093;28;20408;-84
2021/12/01 01:26:56;;;;;;;22.50;11.20;;;9.70;99.90;;;;;;4986141;28;20113;-84
2021/12/01 01:29:22;;;;;;;21.02;11.68;;;9.70;99.90;;;;;;4978656;28;20041;-84
2021/12/01 01:31:57;;;;;;;21.88;10.98;;;9.70;99.90;;;;;;4983694;28;20125;-84
2021/12/01 01:34:24;;;;;;;19.23;9.82;;;9.70;99.90;;;;;;4982382;28;20049;-84
2021/12/01 01:36:51;;;;;;;18.45;10.15;;;9.70;99.90;;;;;;4984787;28;20059;-84
2021/12/01 01:39:18;;;;;;;20.92;10.38;;;9.70;99.90;;;;;;4993453;28;20049;-84
2021/12/01 01:41:44;;;;;;;18.42;10.05;;;9.70;99.90;;;;;;4993966;28;20125;-84
2021/12/01 01:44:10;;;;;;;16.25;9.15;;;9.70;99.90;;;;;;4993266;28;20120;-84
2021/12/01 01:46:38;;;;;;;17.27;9.93;;;9.70;99.90;;;;;;4986445;28;20212;-84
2021/12/01 01:49:19;;;;;;;15.63;9.93;;;9.70;99.90;;;;;;4986679;28;20559;-84
2021/12/01 01:51:47;;;;;;;14.93;9.63;;;9.70;99.90;;;;;;4993172;28;20125;-84
2021/12/01 01:54:14;;;;;;;15.98;9.20;;;9.70;99.90;;;;;;4993595;28;20048;-84
2021/12/01 01:56:40;;;;;;;13.95;8.40;;;9.70;99.90;;;;;;4993537;28;20048;-84
2021/12/01 01:59:06;;;;;;;15.45;8.85;;;9.80;99.90;;;;;;4988036;28;20042;-84
2021/12/01 02:01:53;;;;;;;12.68;7.63;;;9.80;99.90;;;;;;4981380;28;20493;-84
2021/12/01 02:04:21;;;;;;;14.93;8.90;;;9.80;99.90;;;;;;5003358;28;20125;-84
2021/12/01 02:06:48;;;;;;;14.30;7.30;;;9.80;99.90;;;;;;4989128;28;20095;-84
2021/12/01 02:09:18;;;;;;;11.50;7.47;;;9.80;99.90;;;;;;4990144;28;20038;-84
2021/12/01 02:11:44;;;;;;;13.77;7.47;;;9.80;99.90;;;;;;4990906;28;20088;-84
2021/12/01 02:14:10;;;;;;;13.75;7.95;;;9.80;99.90;;;;;;4982305;28;20049;-84
2021/12/01 02:16:37;;;;;;;13.88;7.05;;;9.80;99.90;;;;;;4990837;28;20119;-84
2021/12/01 02:19:03;;;;;;;12.95;7.65;;;9.90;99.90;;;;;;4990397;28;20045;-85
2021/12/01 02:21:31;;;;;;;13.18;7.60;;;9.80;99.90;;;;;;4991859;28;20038;-84
2021/12/01 02:24:04;;;;;;;12.05;7.05;;;9.90;99.90;;;;;;4992514;28;20044;-84
2021/12/01 02:26:32;;;;;;;12.80;7.65;;;9.80;99.90;;;;;;4985140;28;20049;-84
2021/12/01 02:29:00;;;;;;;15.68;8.57;;;9.90;99.90;;;;;;4985140;28;20048;-84
2021/12/01 02:31:28;;;;;;;12.73;7.28;;;9.90;99.90;;;;;;4983545;28;20564;-85
2021/12/01 02:33:55;;;;;;;12.38;7.05;;;9.90;99.90;;;;;;4989185;28;20035;-84
2021/12/01 02:36:22;;;;;;;12.70;6.65;;;9.90;99.90;;;;;;4962065;28;20049;-84
2021/12/01 02:38:49;;;;;;;10.65;5.75;;;9.90;99.90;;;;;;4990181;28;20042;-84
2021/12/01 02:41:16;;;;;;;8.20;5.45;;;9.90;99.90;;;;;;4989169;28;20034;-84
2021/12/01 02:43:44;;;;;;;8.85;5.28;;;10.00;99.90;;;;;;4993071;28;20256;-85
2021/12/01 02:46:09;;;;;;;8.90;5.25;;;10.00;99.90;;;;;;4986551;28;20046;-84
2021/12/01 02:48:41;;;;;;;8.68;4.45;;;10.00;99.90;;;;;;4980128;28;20121;-84
2021/12/01 02:51:08;;;;;;;7.93;4.53;;;10.00;99.90;;;;;;4978696;28;20042;-84
2021/12/01 02:53:34;;;;;;;6.40;3.63;;;10.00;99.90;;;;;;4983065;28;20452;-84
2021/12/01 02:56:02;;;;;;;9.50;3.75;;;10.10;99.90;;;;;;5002888;28;20034;-84
2021/12/01 02:58:33;;;;;;;8.00;3.42;;;10.10;99.90;;;;;;4992259;28;20077;-84
2021/12/01 03:01:02;;;;;;;6.65;2.85;;;10.10;99.90;;;;;;4980263;28;20096;-84
2021/12/01 03:03:28;;;;;;;5.20;2.60;;;10.10;99.90;;;;;;4978353;28;20042;-84
2021/12/01 03:05:54;;;;;;;5.57;2.40;;;10.10;99.90;;;;;;5005678;28;20038;-84
2021/12/01 03:08:20;;;;;;;4.75;1.88;;;10.10;99.90;;;;;;4980286;28;20042;-84
2021/12/01 03:10:49;;;;;;;5.82;2.20;;;10.10;99.90;;;;;;4984376;28;20122;-85
2021/12/01 03:13:16;;;;;;;4.95;2.10;;;10.10;99.90;;;;;;4981730;28;20121;-85
2021/12/01 03:15:42;;;;;;;9.77;2.55;;;10.10;99.90;;;;;;4982898;28;20048;-85
2021/12/01 03:18:08;;;;;;;8.85;2.28;;;10.10;99.90;;;;;;4976547;28;20042;-85
2021/12/01 03:20:34;;;;;;;5.78;2.50;;;10.10;99.90;;;;;;4989820;28;20125;-84
2021/12/01 03:22:59;;;;;;;5.18;2.30;;;10.10;99.90;;;;;;4988735;28;20127;-85
2021/12/01 03:25:27;;;;;;;4.10;2.20;;;10.00;99.90;;;;;;4971984;28;20038;-84
2021/12/01 03:27:53;;;;;;;6.75;2.20;;;10.00;99.90;;;;;;4991544;28;20030;-84
2021/12/01 03:30:19;;;;;;;6.80;2.35;;;10.00;99.90;;;;;;4986976;28;20034;-84
2021/12/01 03:32:45;;;;;;;3.95;1.75;;;10.00;99.90;;;;;;4976909;28;20076;-84
2021/12/01 03:35:13;;;;;;;4.07;1.77;;;10.00;99.90;;;;;;4977552;28;20041;-84
2021/12/01 03:37:42;;;;;;;4.10;2.00;;;10.00;99.90;;;;;;4986896;28;20390;-85
2021/12/01 03:40:08;;;;;;;6.10;1.83;;;10.10;99.90;;;;;;4993929;28;20041;-83
2021/12/01 03:42:34;;;;;;;5.72;2.03;;;10.10;99.90;;;;;;4993761;28;20081;-84
2021/12/01 03:45:00;;;;;;;4.18;2.10;;;10.10;99.90;;;;;;4985696;28;20053;-85
2021/12/01 03:47:26;;;;;;;4.95;2.17;;;10.10;99.90;;;;;;4985054;28;20053;-86
2021/12/01 03:49:53;;;;;;;6.57;2.42;;;10.10;99.90;;;;;;4994346;28;20089;-86
2021/12/01 03:52:19;;;;;;;4.72;2.60;;;10.10;99.90;;;;;;5003153;28;20037;-83
2021/12/01 03:54:47;;;;;;;4.47;2.45;;;10.10;99.90;;;;;;5001643;28;20045;-86
2021/12/01 03:57:13;;;;;;;4.57;2.20;;;10.00;99.90;;;;;;4989960;28;20045;-84
2021/12/01 03:59:39;;;;;;;3.38;2.28;;;10.00;99.90;;;;;;5012613;28;20050;-83
2021/12/01 04:02:05;;;;;;;6.55;2.40;;;10.10;99.90;;;;;;4992516;28;20038;-83
2021/12/01 04:04:31;;;;;;;5.15;2.13;;;10.10;99.90;;;;;;4993184;28;20120;-85
2021/12/01 04:06:57;;;;;;;6.65;2.88;;;10.00;99.90;;;;;;4990955;28;20030;-84
2021/12/01 04:09:23;;;;;;;6.18;2.65;;;10.00;99.90;;;;;;4985451;28;20088;-85
2021/12/01 04:11:49;;;;;;;4.22;2.15;;;9.90;99.90;;;;;;4991148;28;20109;-87
2021/12/01 04:14:14;;;;;;;3.42;2.20;;;9.90;99.90;;;;;;4984569;28;20088;-85
2021/12/01 04:16:40;;;;;;;7.10;2.30;;;9.90;99.90;;;;;;4999919;28;20059;-83
2021/12/01 04:19:06;;;;;;;3.53;2.28;;;9.90;99.90;;;;;;5000101;28;20036;-84
2021/12/01 04:21:31;;;;;;;2.60;2.00;;;9.90;99.90;;;;;;4999159;28;20096;-84
2021/12/01 04:23:57;;;;;;;4.38;2.20;;;9.80;99.90;;;;;;4990051;28;20042;-85
2021/12/01 04:26:26;;;;;;;3.20;2.15;;;9.90;99.90;;;;;;4991130;28;20049;-84
2021/12/01 04:28:53;;;;;;;4.38;2.40;;;9.80;99.90;;;;;;4997307;28;20073;-83
2021/12/01 04:31:19;;;;;;;3.63;2.30;;;9.80;99.90;;;;;;4994803;28;20053;-84
2021/12/01 04:33:44;;;;;;;4.10;2.38;;;9.80;99.90;;;;;;4999291;28;20037;-83
2021/12/01 04:36:11;;;;;;;4.72;2.70;;;9.80;99.90;;;;;;4996793;28;20042;-84
2021/12/01 04:38:37;;;;;;;4.60;2.92;;;9.80;99.90;;;;;;4981193;28;20038;-84
2021/12/01 04:41:02;;;;;;;5.07;3.10;;;9.80;99.90;;;;;;4999407;28;20426;-84
2021/12/01 04:43:28;;;;;;;4.15;2.80;;;9.70;99.90;;;;;;5003674;28;20069;-84
2021/12/01 04:45:59;;;;;;;4.40;3.03;;;9.80;99.90;;;;;;5002632;28;20038;-84
2021/12/01 04:48:26;;;;;;;4.10;2.92;;;9.70;99.90;;;;;;4986392;28;20049;-83
2021/12/01 04:50:52;;;;;;;4.47;3.05;;;9.70;99.90;;;;;;5019336;28;20034;-83
2021/12/01 04:53:17;;;;;;;5.47;3.17;;;9.70;99.90;;;;;;5002397;28;20400;-85
2021/12/01 04:55:44;;;;;;;4.53;3.10;;;9.60;99.90;;;;;;4994814;28;20122;-83
2021/12/01 04:58:09;;;;;;;5.22;3.45;;;9.70;99.90;;;;;;5001018;28;20041;-83
2021/12/01 05:00:37;;;;;;;4.25;3.08;;;9.60;99.90;;;;;;4969145;28;20060;-82
2021/12/01 05:03:03;;;;;;;5.10;3.58;;;9.60;99.90;;;;;;4993600;28;20046;-84
2021/12/01 05:05:29;;;;;;;5.53;3.53;;;9.60;99.90;;;;;;4988316;28;20105;-83
2021/12/01 05:07:55;;;;;;;5.40;3.78;;;9.60;99.90;;;;;;4981122;28;20037;-83
2021/12/01 05:10:21;;;;;;;4.80;3.22;;;9.60;99.90;;;;;;4996305;28;20125;-83
2021/12/01 05:12:47;;;;;;;4.30;3.22;;;9.60;99.90;;;;;;4992969;28;20074;-83
2021/12/01 05:15:12;;;;;;;5.05;3.58;;;9.50;99.90;;;;;;4989976;28;20062;-84
2021/12/01 05:17:38;;;;;;;5.25;3.67;;;9.50;99.90;;;;;;4971297;28;20084;-83
2021/12/01 05:20:05;;;;;;;6.30;4.10;;;9.50;99.90;;;;;;4990158;28;20616;-83
2021/12/01 05:22:31;;;;;;;5.13;3.72;;;9.50;99.90;;;;;;4988134;28;20064;-83
2021/12/01 05:24:57;;;;;;;5.40;3.78;;;9.50;99.90;;;;;;4998827;28;20121;-84
2021/12/01 05:27:23;;;;;;;5.32;4.00;;;9.50;99.90;;;;;;4993905;28;20034;-85
2021/12/01 05:29:48;;;;;;;6.05;3.97;;;9.50;99.90;;;;;;4987426;28;20053;-87
2021/12/01 05:32:15;;;;;;;6.20;4.40;;;9.40;99.90;;;;;;4990960;28;20034;-83
2021/12/01 05:34:41;;;;;;;6.10;3.97;;;9.40;99.90;;;;;;5009931;28;20046;-83
2021/12/01 05:37:07;;;;;;;6.07;3.53;;;9.40;99.90;;;;;;4988086;28;20073;-86
2021/12/01 05:39:33;;;;;;;6.32;3.83;;;9.40;99.90;;;;;;4977433;28;20035;-86
2021/12/01 05:41:59;;;;;;;5.38;3.28;;;9.40;99.90;;;;;;5001841;28;20517;-83
2021/12/01 05:44:26;;;;;;;4.53;3.30;;;9.40;99.90;;;;;;5000952;28;20441;-84
2021/12/01 05:46:52;;;;;;;4.50;2.88;;;10.20;99.90;;;;;;4991012;28;20108;-88
2021/12/01 05:49:17;;;;;;;4.13;2.90;;;9.30;99.90;;;;;;4992690;28;20049;-85
2021/12/01 05:51:43;;;;;;;4.75;2.70;;;9.30;99.90;;;;;;4994322;28;20512;-88
2021/12/01 05:54:09;;;;;;;3.47;2.47;;;9.30;99.90;;;;;;5003508;28;20046;-88
2021/12/01 05:56:35;;;;;;;4.63;2.40;;;9.30;99.90;;;;;;4996093;28;20121;-86
2021/12/01 05:59:01;;;;;;;3.63;2.50;;;9.30;99.90;;;;;;5000727;28;20054;-85
2021/12/01 06:01:27;;;;;;;3.30;2.25;;;9.30;99.90;;;;;;4981971;28;20070;-83
2021/12/01 06:03:53;;;;;;;4.38;2.22;;;9.30;99.90;;;;;;4985000;28;20038;-86
2021/12/01 06:06:18;;;;;;;3.33;2.17;;;9.20;99.90;;;;;;5005027;28;20057;-84
2021/12/01 06:08:44;;;;;;;2.47;1.92;;;9.20;99.90;;;;;;4988726;28;20042;-88
2021/12/01 06:11:10;;;;;;;3.38;2.40;;;9.20;99.90;;;;;;4977390;28;20048;-90
2021/12/01 06:13:37;;;;;;;2.88;2.08;;;9.10;99.90;;;;;;4975594;28;20044;-90
2021/12/01 06:16:03;;;;;;;2.20;1.55;;;9.20;99.90;;;;;;4996161;28;20042;-87
2021/12/01 06:18:30;;;;;;;3.10;2.08;;;9.20;99.90;;;;;;4970134;28;20042;-87
2021/12/01 06:20:57;;;;;;;2.95;2.10;;;9.10;99.90;;;;;;4960709;28;20038;-86
2021/12/01 06:23:23;;;;;;;2.60;1.75;;;9.10;99.90;;;;;;4969920;28;20042;-87
2021/12/01 06:25:49;;;;;;;4.60;2.00;;;9.20;99.90;;;;;;4965811;28;20460;-87
2021/12/01 06:28:15;;;;;;;3.53;2.17;;;9.20;99.90;;;;;;4989419;28;20060;-88
2021/12/01 06:30:41;;;;;;;3.42;2.30;;;9.10;99.90;;;;;;4974347;28;20042;-88
2021/12/01 06:33:07;;;;;;;2.78;2.30;;;9.10;99.90;;;;;;4973519;28;20030;-87
2021/12/01 06:35:34;;;;;;;3.30;2.45;;;9.00;99.90;;;;;;4961473;28;20070;-92
2021/12/01 06:38:01;;;;;;;3.80;2.13;;;9.00;99.90;;;;;;4989560;28;20046;-89
2021/12/01 06:40:27;;;;;;;3.05;2.10;;;9.10;99.90;;;;;;4976407;28;20046;-88
2021/12/01 06:42:53;;;;;;;3.75;2.30;;;9.10;99.90;;;;;;4981736;28;20481;-87
2021/12/01 06:45:19;;;;;;;3.05;2.42;;;9.00;99.90;;;;;;4994253;28;20045;-90
2021/12/01 06:47:46;;;;;;;4.25;2.80;;;9.00;99.90;;;;;;4986875;28;20038;-89
2021/12/01 06:50:12;;;;;;;4.95;2.65;;;9.00;99.90;;;;;;4987892;28;20038;-86
2021/12/01 06:52:38;;;;;;;3.45;2.20;;;9.00;99.90;;;;;;4977825;28;20039;-84
2021/12/01 06:55:07;;;;;;;4.47;2.22;;;9.00;99.90;;;;;;4996594;28;20541;-85
2021/12/01 06:57:33;;;;;;;3.13;2.20;;;9.00;99.90;;;;;;4983679;28;20034;-85
2021/12/01 06:59:59;;;;;;;4.45;2.35;;;9.00;99.90;;;;;;4980100;28;20037;-89
2021/12/01 07:02:26;;;;;;;3.70;2.20;;;9.00;99.90;;;;;;4989916;28;20046;-90
2021/12/01 07:04:52;;;;;;;4.03;2.60;;;9.00;99.90;;;;;;4982815;28;20124;-89
2021/12/01 07:07:18;;;;;;;5.28;2.65;;;9.00;99.90;;;;;;4985989;28;20041;-87
2021/12/01 07:09:45;;;;;;;4.78;2.38;;;8.90;99.90;;;;;;4995404;28;20038;-86
2021/12/01 07:12:12;;;;;;;4.10;2.20;;;9.00;99.90;;;;;;4989068;28;20038;-84
2021/12/01 07:14:37;;;;;;;3.90;2.28;;;8.90;99.90;;;;;;5008734;28;20087;-88
2021/12/01 07:17:05;;;;;;;3.80;2.38;;;9.00;99.90;;;;;;4994849;28;20034;-84
2021/12/01 07:19:31;;;;;;;3.30;2.50;;;8.90;99.90;;;;;;4999275;28;20076;-84
2021/12/01 07:21:56;;;;;;;3.17;2.03;;;9.00;99.90;;;;;;4986319;28;20034;-86
2021/12/01 07:24:22;;;;;;;3.45;2.40;;;9.00;99.90;;;;;;4999485;28;20045;-86
2021/12/01 07:26:47;;;;;;;3.75;2.50;;;8.90;99.90;;;;;;4979811;28;20516;-84
2021/12/01 07:29:13;;;;;;;3.92;2.40;;;8.90;99.90;;;;;;4993336;28;20041;-84
2021/12/01 07:31:39;;;;;;;4.38;2.78;;;8.90;99.90;;;;;;4973778;28;20038;-84
2021/12/01 07:34:04;;;;;;;4.22;2.97;;;8.90;99.90;;;;;;5010102;28;20036;-85
2021/12/01 07:36:30;;;;;;;4.50;2.92;;;8.90;99.90;;;;;;4972342;28;20127;-85
2021/12/01 07:38:58;;;;;;;3.90;2.90;;;8.90;99.90;;;;;;4971580;28;20096;-85
2021/12/01 07:41:24;;;;;;;4.35;2.50;;;8.90;99.90;;;;;;4981182;28;20042;-83
2021/12/01 07:43:49;;;;;;;3.17;2.25;;;9.00;99.90;;;;;;4993123;28;20429;-83
2021/12/01 07:46:15;;;;;;;3.22;2.33;;;8.90;99.90;;;;;;5000233;28;20037;-85
2021/12/01 07:48:41;;;;;;;3.33;2.17;;;8.90;99.90;;;;;;4967552;28;20025;-84
2021/12/01 07:51:06;;;;;;;3.65;2.65;;;8.90;99.90;;;;;;4992833;28;20041;-88
2021/12/01 07:53:32;;;;;;;3.53;2.42;;;8.90;99.90;;;;;;4973509;28;20038;-84
2021/12/01 07:55:58;;;;;;;2.70;2.15;;;9.00;99.90;;;;;;4985632;28;20480;-84
2021/12/01 07:58:24;;;;;;;5.30;2.63;;;9.00;99.90;;;;;;4990490;28;20088;-84
2021/12/01 08:00:49;;;;;;;4.00;2.67;;;9.00;99.90;;;;;;4978547;28;20041;-85
2021/12/01 08:03:15;;;;;;;3.97;2.75;;;9.10;99.90;;;;;;5018349;28;20084;-86
2021/12/01 08:05:41;;;;;;;5.28;2.67;;;9.10;99.90;;;;;;4971632;28;20041;-87
2021/12/01 08:08:07;;;;;;;4.82;3.10;;;9.10;99.90;;;;;;4990845;28;20042;-84
2021/12/01 08:10:33;;;;;;;4.53;3.00;;;9.10;99.90;;;;;;4992558;28;20046;-89
2021/12/01 08:13:00;;;;;;;4.65;2.88;;;9.20;99.90;;;;;;5010653;28;20037;-84
2021/12/01 08:15:26;;;;;;;4.63;2.95;;;9.20;99.90;;;;;;4999008;28;20053;-86
2021/12/01 08:17:53;;;;;;;6.85;3.00;;;9.20;99.90;;;;;;4996858;28;20464;-83
2021/12/01 08:20:19;;;;;;;4.70;3.20;;;9.30;99.90;;;;;;4987723;28;20038;-85
2021/12/01 08:22:44;;;;;;;9.02;4.10;;;9.20;99.90;;;;;;4987254;28;20488;-87
2021/12/01 08:25:10;;;;;;;5.13;3.42;;;9.30;99.90;;;;;;4988129;28;20083;-85
2021/12/01 08:27:36;;;;;;;4.97;3.20;;;9.30;99.90;;;;;;4994466;28;20428;-87
2021/12/01 08:30:02;;;;;;;5.10;2.95;;;9.30;99.90;;;;;;5009292;28;20073;-86
2021/12/01 08:32:28;;;;;;;6.38;3.33;;;9.30;99.90;;;;;;4975651;28;20045;-89
2021/12/01 08:34:53;;;;;;;5.30;3.30;;;9.30;99.90;;;;;;4990526;28;20034;-88
2021/12/01 08:37:20;;;;;;;5.18;3.10;;;9.30;99.90;;;;;;5002185;28;20062;-84
2021/12/01 08:39:48;;;;;;;7.07;3.45;;;9.40;99.90;;;;;;4990511;28;20048;-87
2021/12/01 08:42:19;;;;;;;5.95;3.90;;;9.40;99.90;;;;;;4992265;28;20080;-86
2021/12/01 08:44:45;;;;;;;5.53;3.25;;;9.30;99.90;;;;;;4969562;28;20046;-83
2021/12/01 08:47:16;;;;;;;5.55;3.20;;;9.40;99.90;;;;;;4987127;28;20044;-84
2021/12/01 08:49:43;;;;;;;5.35;3.22;;;9.40;99.90;;;;;;5007700;28;20085;-85
2021/12/01 08:52:09;;;;;;;6.63;2.78;;;9.50;99.90;;;;;;4991436;28;20036;-85
2021/12/01 08:54:35;;;;;;;5.55;2.78;;;9.50;99.90;;;;;;4972330;28;20137;-85
2021/12/01 08:57:01;;;;;;;7.05;3.05;;;9.50;99.90;;;;;;4977314;28;20072;-84
2021/12/01 08:59:27;;;;;;;8.15;3.05;;;9.50;99.90;;;;;;4965897;28;20034;-85
2021/12/01 09:01:53;;;;;;;6.18;2.83;;;9.50;99.90;;;;;;5006025;28;20035;-88
2021/12/01 09:04:19;;;;;;;9.00;2.40;;;9.40;99.90;;;;;;4977934;28;20042;-86
2021/12/01 09:06:45;;;;;;;10.45;2.50;;;9.40;99.90;;;;;;4976309;28;20050;-87
2021/12/01 09:09:17;;;;;;;9.40;2.45;;;9.40;99.90;;;;;;4991413;28;20037;-85
2021/12/01 09:11:43;;;;;;;;;;;9.40;99.90;;;;;;4971590;28;20169;-86
2021/12/01 09:14:09;;;;;;;9.98;1.80;;;9.40;99.90;;;;;;4992501;28;19948;-87
2021/12/01 09:16:35;;;;;;;11.18;2.13;;;9.40;99.90;;;;;;4970805;28;20468;-83
2021/12/01 09:19:01;;;;;;;9.00;1.80;;;9.40;99.90;;;;;;4989234;28;20093;-85
2021/12/01 09:21:27;;;;;;;12.73;1.80;;;9.40;99.90;;;;;;4968966;28;20056;-84
2021/12/01 09:23:52;;;;;;;10.75;1.80;;;9.40;99.90;;;;;;4991122;28;20030;-85
2021/12/01 09:26:18;;;;;;;8.68;2.22;;;9.40;99.90;;;;;;4982729;28;20480;-84
2021/12/01 09:28:44;;;;;;;14.48;2.28;;;9.40;99.90;;;;;;4990258;28;20065;-85
2021/12/01 09:31:09;;;;;;;11.65;2.60;;;9.40;99.90;;;;;;4971824;28;20038;-87
2021/12/01 09:33:35;;;;;;;16.75;2.25;;;9.40;99.90;;;;;;4982629;28;20560;-85
2021/12/01 09:36:01;;;;;;;9.27;2.05;;;9.40;99.90;;;;;;4968573;28;20038;-84
2021/12/01 09:38:27;;;;;;;9.98;1.90;;;9.50;99.90;;;;;;4972604;28;20041;-85
2021/12/01 09:40:55;;;;;;;11.23;2.75;;;9.40;99.90;;;;;;4994661;23;20035;-45
2021/12/01 09:43:25;;;;;;;9.52;2.17;;;9.50;99.90;;;;;;4992377;28;20042;-46
2021/12/01 09:45:55;;;;;;;7.20;1.65;;;9.50;99.90;;;;;;4983663;28;20068;-46
2021/12/01 09:48:21;;;;;;;7.22;1.70;;;9.50;99.90;;;;;;4993766;28;20058;-45
2021/12/01 09:50:47;;;;;;;6.50;1.40;;;9.40;99.90;;;;;;4989011;28;20038;-45
2021/12/01 09:53:13;;;;;;;7.20;1.40;;;9.40;99.90;;;;;;4987150;28;20038;-46
2021/12/01 09:55:40;;;;;;;12.30;2.10;;;9.50;99.90;;;;;;4983437;28;20042;-47
2021/12/01 09:58:11;;;;;;;6.80;1.40;;;9.40;99.90;;;;;;4984554;28;20049;-46
2021/12/01 10:00:42;;;;;;;10.70;1.40;;;9.40;99.90;;;;;;4989466;28;20038;-45
2021/12/01 10:03:08;;;;;;;8.27;1.60;;;9.40;99.90;;;;;;4975919;28;20117;-46
2021/12/01 10:06:00;;;;;;;10.25;1.88;;;9.40;99.90;;;;;;4985776;28;20042;-45
2021/12/01 10:08:35;;;;;;;11.63;1.50;;;9.40;99.90;;;;;;4985402;28;20050;-46
2021/12/01 10:11:13;;;;;;;8.48;1.70;;;9.40;99.90;;;;;;4982028;28;20510;-48
2021/12/01 10:13:42;;;;;;;10.07;1.60;;;9.30;99.90;;;;;;4980106;28;20104;-46
2021/12/01 10:16:12;;;;;;;7.40;1.67;;;9.30;99.90;;;;;;4985496;28;20038;-50
2021/12/01 10:18:49;;;;;;;7.40;1.35;;;9.30;99.90;;;;;;4985029;28;20042;-48
2021/12/01 10:21:18;;;;;;;6.90;1.27;;;9.30;99.90;;;;;;4971331;28;20506;-51
2021/12/01 10:23:49;;;;;;;10.18;1.88;;;9.30;99.90;;;;;;4980846;28;20402;-49
2021/12/01 10:26:32;;;;;;;9.53;1.43;;;9.30;99.90;;;;;;4988206;28;20384;-48
2021/12/01 10:29:06;;;;;;;8.32;1.50;;;9.20;99.90;;;;;;4979435;28;20678;-47
2021/12/01 10:31:41;;;;;;;9.73;1.42;;;9.20;99.90;;;;;;4987752;28;20050;-48
2021/12/01 10:34:24;;;;;;;13.20;1.70;;;9.30;99.90;;;;;;4983415;28;20050;-48
2021/12/01 10:37:05;;;;;;;9.65;1.55;;;9.30;99.90;;;;;;4984446;28;20066;-49
2021/12/01 10:39:31;;;;;;;15.35;2.55;;;9.30;99.90;;;;;;4980232;28;20050;-49
2021/12/01 10:42:06;;;;;;;9.50;1.80;;;9.40;99.90;;;;;;4988687;28;20413;-47
2021/12/01 10:44:33;;;;;;;7.25;1.88;;;9.40;99.90;;;;;;4983929;28;20055;-47
2021/12/01 10:47:09;;;;;;;13.60;2.10;;;9.40;99.90;;;;;;4985654;28;20080;-47
2021/12/01 10:49:40;;;;;;;13.38;1.90;;;9.40;99.90;;;;;;4984467;28;20552;-50
2021/12/01 10:52:26;;;;;;;12.80;1.65;;;9.40;99.90;;;;;;4980470;28;20057;-50
2021/12/01 10:55:23;;;;;;;10.30;1.83;;;9.40;99.90;;;;;;4969708;28;20070;-49
2021/12/01 10:57:55;;;;;;;11.95;1.83;;;9.50;99.90;;;;;;4951230;28;20081;-49
2021/12/01 11:00:31;;;;;;;8.43;1.60;;;9.50;99.90;;;;;;4984511;28;20129;-48
2021/12/01 11:03:08;;;;;;;10.88;2.47;;;9.50;99.90;;;;;;4983649;28;20457;-48
2021/12/01 11:05:36;;;;;;;10.90;2.17;;;9.50;99.90;;;;;;4986629;28;20039;-48
2021/12/01 11:08:25;;;;;;;10.85;2.40;;;9.50;99.90;;;;;;4986728;28;20035;-51
2021/12/01 11:11:03;;;;;;;13.73;2.08;;;9.50;99.90;;;;;;4986556;28;20046;-50
2021/12/01 11:13:29;;;;;;;13.10;1.90;;;9.50;99.90;;;;;;4985161;28;20088;-49
2021/12/01 11:15:57;;;;;;;14.50;2.28;;;9.50;99.90;;;;;;4982642;28;20073;-48
2021/12/01 11:18:29;;;;;;;9.63;2.30;;;9.50;99.90;;;;;;4988020;28;20398;-49
2021/12/01 11:20:57;;;;;;;13.77;2.17;;;9.50;99.90;;;;;;4986792;28;20045;-48
2021/12/01 11:23:34;;;;;;;9.13;1.92;;;9.60;99.90;;;;;;4987012;28;20049;-48
2021/12/01 11:26:05;;;;;;;12.82;2.45;;;9.50;99.90;;;;;;4983353;28;20050;-47
2021/12/01 11:28:37;;;;;;;14.68;2.20;;;9.60;99.90;;;;;;4982776;28;20043;-48
2021/12/01 11:31:06;;;;;;;11.73;2.30;;;9.60;99.90;;;;;;4982058;28;20121;-52
2021/12/01 11:33:32;;;;;;;15.55;3.55;;;9.60;99.90;;;;;;4985489;28;20410;-49
2021/12/01 11:36:08;;;;;;;15.15;2.25;;;9.60;99.90;;;;;;4989933;28;20038;-50
2021/12/01 11:38:35;;;;;;;16.33;2.20;;;9.60;99.90;;;;;;4980433;28;20042;-49
2021/12/01 11:41:02;;;;;;;13.25;2.38;;;9.60;99.90;;;;;;4981616;28;20105;-48
2021/12/01 11:43:29;;;;;;;19.30;2.70;;;9.60;99.90;;;;;;4983118;28;20046;-49
2021/12/01 11:45:55;;;;;;;14.05;2.50;;;9.60;99.90;;;;;;4990213;28;20039;-51
2021/12/01 11:48:27;;;;;;;11.48;2.10;;;9.60;99.90;;;;;;4982876;28;20038;-51
2021/12/01 11:50:55;;;;;;;11.88;2.45;;;9.60;99.90;;;;;;4986818;28;20490;-50
2021/12/01 11:53:32;;;;;;;19.20;3.30;;;9.60;99.90;;;;;;4977932;28;20422;-49
2021/12/01 11:56:01;;;;;;;13.88;2.72;;;9.60;99.90;;;;;;4986246;28;20038;-52
2021/12/01 11:58:44;;;;;;;16.13;2.60;;;9.60;99.90;;;;;;4982437;28;20398;-50
2021/12/01 12:01:21;;;;;;;15.05;2.25;;;9.50;99.90;;;;;;4986935;28;20113;-47
2021/12/01 12:03:53;;;;;;;13.20;2.80;;;9.60;99.90;;;;;;4984011;28;20044;-51
2021/12/01 12:06:26;;;;;;;21.33;3.20;;;9.60;99.90;;;;;;4981740;28;20089;-49
2021/12/01 12:09:10;;;;;;;17.17;2.50;;;9.50;99.90;;;;;;4967861;28;20034;-48
2021/12/01 12:11:50;;;;;;;15.40;3.13;;;9.50;99.90;;;;;;4989558;28;20095;-47
2021/12/01 12:14:30;;;;;;;9.93;2.75;;;9.50;99.90;;;;;;4970433;28;20080;-47
2021/12/01 12:17:12;;;;;;;14.25;2.65;;;9.50;99.90;;;;;;4987297;28;20050;-49
2021/12/01 12:19:47;;;;;;;14.73;2.60;;;9.50;99.90;;;;;;4988477;28;20030;-47
2021/12/01 12:22:49;;;;;;;15.75;2.58;;;9.50;99.90;;;;;;4991919;28;20042;-47
2021/12/01 12:25:55;;;;;;;13.90;2.92;;;9.40;99.90;;;;;;4989798;28;20125;-48
2021/12/01 12:28:28;;;;;;;17.30;2.58;;;9.40;99.90;;;;;;4940561;28;20065;-49
2021/12/01 12:30:59;;;;;;;13.05;2.92;;;9.40;99.90;;;;;;4991340;28;20031;-49
2021/12/01 12:33:34;;;;;;;17.08;2.50;;;9.20;99.90;;;;;;4983150;28;20096;-50
2021/12/01 12:36:05;;;;;;;11.07;2.50;;;9.30;99.90;;;;;;4983758;28;20034;-49
2021/12/01 12:38:31;;;;;;;21.10;2.60;;;9.30;99.90;;;;;;4984261;28;20514;-50
2021/12/01 12:41:01;;;;;;;14.38;2.58;;;9.30;99.90;;;;;;4985139;28;20042;-50
2021/12/01 12:43:29;;;;;;;14.35;2.50;;;9.30;99.90;;;;;;4993293;28;20038;-53
2021/12/01 12:46:15;;;;;;;15.75;2.55;;;9.20;99.90;;;;;;4964780;28;20082;-48
2021/12/01 12:48:42;;;;;;;17.42;2.65;;;9.20;99.90;;;;;;4974113;28;20048;-49
2021/12/01 12:51:22;;;;;;;11.50;2.30;;;9.10;99.90;;;;;;4988448;28;20038;-49
2021/12/01 12:54:12;;;;;;;15.13;3.67;;;9.10;99.90;;;;;;4990386;28;20125;-47
2021/12/01 12:56:41;;;;;;;16.27;2.80;;;9.10;99.90;;;;;;4987657;28;20039;-47
2021/12/01 12:59:21;;;;;;;19.00;3.00;;;9.00;99.90;;;;;;4988848;28;20110;-47
2021/12/01 13:01:49;;;;;;;15.85;2.67;;;9.10;99.90;;;;;;4988233;28;20136;-47
2021/12/01 13:04:47;;;;;;;17.23;3.17;;;9.00;99.90;;;;;;4986793;28;20070;-51